الصفحة الرئيسية
METAR-TAF:

METAR-TAF

مطار :

مطار أثينا الدولي

أثينا, اليونان

دائرة عرض: 37-56N, خط طول: 023-56E, ارتفاع: 94 متر

مراقبة الطقس الحالي

تاريخ ووقت الإصدار 18 دقيقة قبل الساعة 23:20UTC
ريح 1 عقدةمن اتجاهات متغيرة
درجة الحرارة 18°درجة مئوية
الرطوبة 77%
ضغط 1013 hPa
الرؤية 10 كم أو أكثر
الغيوم لا تقل 1500 م ولا وجود لمزنة ركامية السحاب الأسود

METAR: LGAV 242320Z VRB01KT CAVOK 18/14 Q1013 NOSIG

زمن: 02:38 (23:38 UTC)

توقعات

تاريخ ووقت الإصدار 38 دقيقة قبل الساعة 23:00UTC
التوقعات صالحة من25 الساعة 00 UTC إلى 25 الساعة 24 UTC
ريح 10 عقدة من الشمال/الشمال الشرقي
الرؤية 10 كم أو أكثر
غيوم قليلة على ارتفاع 2500 قدم
أصبح
من 25 الساعة 04 UTC إلى 25 الساعة 06 UTC
ريح 22 عقدة من الشمال/الشمال الشرقي تتزايد حتى 32 عقدة
غيوم متفرقة على ارتفاع 2000 قدم

TAF: LGAV 242300Z 2500/2524 02010KT 9999 FEW025 BECMG 2504/2506 02022G32KT SCT020

أرصاد الطقس والتوقعات من أكثر من 4000 مطار (تقارير الطقس للمطار METAR والتنبؤ بالطقس بالمطارTAF).

المحطات المتاحة هي النقط الصفراء والحمراء على الخريطة.

حرك المؤشر فوق النقطة لمعرفة اسم المحطة.

ثم انقر لمعرفة أرصاد وتوقعات الطقس.

لتغيير الخارطة: اضغط على الأزرار الخضراء مع رمز الصليب الأسود للتكبير. على الزر الأخضر مع شرطة للتصغير، أو على الأسهم الخضراء للخرائط المجاورة.


METAR-TAF: